createdAt,value
2023-01-01T00:00:33.758Z,1003.61
2023-01-01T00:01:38.086Z,1003.61
2023-01-01T00:02:42.414Z,1003.62
2023-01-01T00:03:46.753Z,1003.63
2023-01-01T00:04:51.993Z,1003.58
2023-01-01T00:05:55.966Z,1003.55
2023-01-01T00:07:00.336Z,1003.56
2023-01-01T00:08:05.441Z,1003.52
2023-01-01T00:09:09.056Z,1003.57
2023-01-01T00:10:13.413Z,1003.54
2023-01-01T00:11:17.693Z,1003.53
2023-01-01T00:12:22.138Z,1003.49
2023-01-01T00:13:26.415Z,1003.49
2023-01-01T00:14:30.809Z,1003.46
2023-01-01T00:15:35.141Z,1003.52
2023-01-01T00:16:39.375Z,1003.47
2023-01-01T00:17:43.762Z,1003.47
2023-01-01T00:18:48.026Z,1003.37
2023-01-01T00:19:55.436Z,1003.40
2023-01-01T00:20:58.886Z,1003.36
2023-01-01T00:22:27.901Z,1003.34
2023-01-01T00:23:07.507Z,1003.31
2023-01-01T00:24:11.872Z,1003.32
2023-01-01T00:25:16.086Z,1003.31
2023-01-01T00:26:20.530Z,1003.32
2023-01-01T00:27:24.888Z,1003.36
2023-01-01T00:28:29.112Z,1003.35
2023-01-01T00:29:33.583Z,1003.37
2023-01-01T00:30:38.001Z,1003.40
2023-01-01T00:31:42.340Z,1003.42
2023-01-01T00:32:54.738Z,1003.43
2023-01-01T00:33:51.005Z,1003.43
2023-01-01T00:34:55.329Z,1003.45
2023-01-01T00:35:59.671Z,1003.51
2023-01-01T00:37:03.999Z,1003.52
2023-01-01T00:38:08.359Z,1003.57
2023-01-01T00:39:12.692Z,1003.58
2023-01-01T00:40:17.037Z,1003.63
2023-01-01T00:41:21.384Z,1003.62
2023-01-01T00:42:25.749Z,1003.60
2023-01-01T00:43:30.113Z,1003.65
2023-01-01T00:44:34.424Z,1003.64
2023-01-01T00:45:38.875Z,1003.64
2023-01-01T00:46:43.190Z,1003.63
2023-01-01T00:47:47.410Z,1003.64
2023-01-01T00:48:51.820Z,1003.64
2023-01-01T00:49:56.136Z,1003.64
2023-01-01T00:51:00.438Z,1003.63
2023-01-01T00:52:04.763Z,1003.65
2023-01-01T00:53:09.083Z,1003.69
2023-01-01T00:54:13.425Z,1003.71
2023-01-01T00:55:17.691Z,1003.71
2023-01-01T00:56:22.169Z,1003.74
2023-01-01T00:57:26.489Z,1003.76
2023-01-01T00:58:30.818Z,1003.77
2023-01-01T00:59:35.222Z,1003.82
2023-01-01T01:00:39.560Z,1003.78
2023-01-01T01:01:44.049Z,1003.82
2023-01-01T01:02:48.262Z,1003.79
2023-01-01T01:03:52.517Z,1003.83
2023-01-01T01:04:56.782Z,1003.81
2023-01-01T01:06:01.193Z,1003.85
2023-01-01T01:07:05.530Z,1003.89
2023-01-01T01:08:09.752Z,1003.93
2023-01-01T01:09:14.120Z,1003.91
2023-01-01T01:10:18.427Z,1003.95
2023-01-01T01:11:22.808Z,1003.94
2023-01-01T01:12:27.124Z,1003.97
2023-01-01T01:13:31.350Z,1003.92
2023-01-01T01:14:35.657Z,1003.90
2023-01-01T01:15:40.160Z,1003.92
2023-01-01T01:16:44.537Z,1003.87
2023-01-01T01:17:48.801Z,1003.88
2023-01-01T01:18:53.124Z,1003.89
2023-01-01T01:19:57.477Z,1003.84
2023-01-01T01:21:00.809Z,1003.85
2023-01-01T01:22:05.095Z,1003.82
2023-01-01T01:23:09.376Z,1003.83
2023-01-01T01:24:13.747Z,1003.83
2023-01-01T01:25:18.124Z,1003.77
2023-01-01T01:26:25.343Z,1003.80
2023-01-01T01:27:28.823Z,1003.84
2023-01-01T01:28:33.063Z,1003.85
2023-01-01T01:29:37.472Z,1003.88
2023-01-01T01:30:41.757Z,1003.89
2023-01-01T01:31:45.925Z,1003.90
2023-01-01T01:32:50.242Z,1003.84
2023-01-01T01:33:54.530Z,1003.89
2023-01-01T01:34:58.941Z,1003.84
2023-01-01T01:36:04.234Z,1003.87
2023-01-01T01:37:08.235Z,1003.91
2023-01-01T01:38:12.459Z,1003.94
2023-01-01T01:39:16.848Z,1003.97
2023-01-01T01:40:21.167Z,1004.01
2023-01-01T01:41:29.239Z,1003.97
2023-01-01T01:42:45.972Z,1003.96
2023-01-01T01:43:48.755Z,1003.99
2023-01-01T01:44:52.982Z,1003.98
2023-01-01T01:45:57.468Z,1004.02
2023-01-01T01:47:01.811Z,1004.00
2023-01-01T01:48:06.085Z,1004.02
2023-01-01T01:49:10.427Z,1004.01
2023-01-01T01:50:14.737Z,1003.97
2023-01-01T01:51:19.080Z,1004.03
2023-01-01T01:52:26.619Z,1004.02
2023-01-01T01:53:30.120Z,1004.05
2023-01-01T01:54:34.330Z,1004.02
2023-01-01T01:55:38.676Z,1004.04
2023-01-01T01:56:43.153Z,1004.06
2023-01-01T01:57:47.620Z,1004.12
2023-01-01T01:58:51.797Z,1004.13
2023-01-01T01:59:56.112Z,1004.19
2023-01-01T02:01:00.555Z,1004.19
2023-01-01T02:02:04.888Z,1004.15
2023-01-01T02:03:09.144Z,1004.17
2023-01-01T02:04:13.353Z,1004.16
2023-01-01T02:05:17.779Z,1004.12
2023-01-01T02:06:22.140Z,1004.14
2023-01-01T02:07:26.496Z,1004.13
2023-01-01T02:08:30.810Z,1004.11
2023-01-01T02:09:35.128Z,1004.09
2023-01-01T02:10:39.485Z,1004.10
2023-01-01T02:11:43.792Z,1004.07
2023-01-01T02:12:48.122Z,1004.11
2023-01-01T02:13:52.459Z,1004.17
2023-01-01T02:14:56.776Z,1004.16
2023-01-01T02:16:01.187Z,1004.17
2023-01-01T02:17:05.434Z,1004.15
2023-01-01T02:18:09.762Z,1004.17
2023-01-01T02:19:14.105Z,1004.16
2023-01-01T02:20:18.381Z,1004.17
2023-01-01T02:21:22.770Z,1004.19
2023-01-01T02:22:27.071Z,1004.17
2023-01-01T02:23:31.290Z,1004.16
2023-01-01T02:24:35.663Z,1004.15
2023-01-01T02:25:40.037Z,1004.14
2023-01-01T02:26:44.343Z,1004.17
2023-01-01T02:27:48.670Z,1004.13
2023-01-01T02:28:52.920Z,1004.08
2023-01-01T02:29:57.323Z,1004.09
2023-01-01T02:31:01.686Z,1004.12
2023-01-01T02:32:06.012Z,1004.12
2023-01-01T02:33:10.377Z,1004.08
2023-01-01T02:34:14.655Z,1004.09
2023-01-01T02:35:18.829Z,1004.10
2023-01-01T02:36:26.163Z,1004.10
2023-01-01T02:37:29.532Z,1004.16
2023-01-01T02:38:33.680Z,1004.12
2023-01-01T02:39:38.233Z,1004.15
2023-01-01T02:40:42.476Z,1004.13
2023-01-01T02:41:46.843Z,1004.16
2023-01-01T02:42:51.188Z,1004.17
2023-01-01T02:44:59.766Z,1004.12
2023-01-01T02:46:04.133Z,1004.12
2023-01-01T02:47:08.386Z,1004.16
2023-01-01T02:48:12.801Z,1004.13
2023-01-01T02:49:17.080Z,1004.16
2023-01-01T02:50:21.421Z,1004.13
2023-01-01T02:51:25.683Z,1004.18
2023-01-01T02:52:29.980Z,1004.15
2023-01-01T02:53:34.284Z,1004.13
2023-01-01T02:54:38.595Z,1004.18
2023-01-01T02:55:43.015Z,1004.18
2023-01-01T02:56:47.257Z,1004.21
2023-01-01T02:57:51.533Z,1004.12
2023-01-01T02:58:55.839Z,1004.16
2023-01-01T03:00:00.157Z,1004.13
2023-01-01T03:01:04.607Z,1004.11
2023-01-01T03:02:09.143Z,1004.11
2023-01-01T03:03:13.315Z,1004.07
2023-01-01T03:04:17.446Z,1004.10
2023-01-01T03:05:21.772Z,1004.05
2023-01-01T03:06:32.075Z,1004.05
2023-01-01T03:07:34.944Z,1004.07
2023-01-01T03:08:39.398Z,1004.09
2023-01-01T03:09:43.574Z,1004.02
2023-01-01T03:10:47.917Z,1004.08
2023-01-01T03:11:52.230Z,1004.10
2023-01-01T03:12:56.526Z,1004.13
2023-01-01T03:14:00.891Z,1004.14
2023-01-01T03:15:05.165Z,1004.15
2023-01-01T03:16:09.506Z,1004.18
2023-01-01T03:17:13.807Z,1004.20
2023-01-01T03:18:27.067Z,1004.24
2023-01-01T03:19:29.737Z,1004.24
2023-01-01T03:20:34.012Z,1004.22
2023-01-01T03:21:38.228Z,1004.24
2023-01-01T03:23:49.888Z,1004.24
2023-01-01T03:24:51.217Z,1004.24
2023-01-01T03:26:09.656Z,1004.29
2023-01-01T03:27:12.566Z,1004.31
2023-01-01T03:28:16.891Z,1004.35
2023-01-01T03:29:21.150Z,1004.31
2023-01-01T03:30:25.408Z,1004.28
2023-01-01T03:31:29.894Z,1004.35
2023-01-01T03:32:34.026Z,1004.37
2023-01-01T03:33:38.332Z,1004.32
2023-01-01T03:34:42.602Z,1004.32
2023-01-01T03:35:46.921Z,1004.34
2023-01-01T03:36:51.267Z,1004.32
2023-01-01T03:37:55.571Z,1004.31
2023-01-01T03:38:59.799Z,1004.32
2023-01-01T03:40:04.096Z,1004.36
2023-01-01T03:41:08.497Z,1004.37
2023-01-01T03:42:12.800Z,1004.31
2023-01-01T03:43:17.106Z,1004.32
2023-01-01T03:44:21.433Z,1004.30
2023-01-01T03:45:25.747Z,1004.20
2023-01-01T03:46:30.045Z,1004.17
2023-01-01T03:47:34.332Z,1004.18
2023-01-01T03:48:38.624Z,1004.14
2023-01-01T03:49:42.930Z,1004.00
2023-01-01T03:50:47.193Z,1004.09
2023-01-01T03:51:51.544Z,1004.13
2023-01-01T03:52:55.817Z,1004.17
2023-01-01T03:54:00.185Z,1004.21
2023-01-01T03:55:04.496Z,1004.18
2023-01-01T03:56:08.796Z,1004.19
2023-01-01T03:57:27.150Z,1004.20
2023-01-01T03:58:30.212Z,1004.22
2023-01-01T03:59:34.565Z,1004.21
2023-01-01T04:00:38.781Z,1004.33
2023-01-01T04:01:43.281Z,1004.29
2023-01-01T04:02:47.524Z,1004.23
2023-01-01T04:03:51.783Z,1004.28
2023-01-01T04:04:56.034Z,1004.27
2023-01-01T04:06:00.382Z,1004.21
2023-01-01T04:07:14.868Z,1004.29
2023-01-01T04:08:08.908Z,1004.30
2023-01-01T04:09:13.176Z,1004.33
2023-01-01T04:10:17.663Z,1004.36
2023-01-01T04:11:21.777Z,1004.37
2023-01-01T04:12:26.145Z,1004.43
2023-01-01T04:13:30.460Z,1004.50
2023-01-01T04:14:34.724Z,1004.49
2023-01-01T04:15:39.030Z,1004.50
2023-01-01T04:16:43.353Z,1004.50
2023-01-01T04:17:47.674Z,1004.46
2023-01-01T04:18:51.997Z,1004.48
2023-01-01T04:19:56.304Z,1004.46
2023-01-01T04:21:00.663Z,1004.54
2023-01-01T04:22:04.945Z,1004.57
2023-01-01T04:23:09.270Z,1004.44
2023-01-01T04:24:13.542Z,1004.46
2023-01-01T04:25:17.863Z,1004.47
2023-01-01T04:26:22.177Z,1004.51
2023-01-01T04:27:26.533Z,1004.56
2023-01-01T04:28:30.796Z,1004.54
2023-01-01T04:29:36.038Z,1004.62
2023-01-01T04:31:44.234Z,1004.65
2023-01-01T04:32:48.633Z,1004.57
2023-01-01T04:33:53.005Z,1004.65
2023-01-01T04:34:57.340Z,1004.53
2023-01-01T04:36:01.668Z,1004.61
2023-01-01T04:37:11.380Z,1004.58
2023-01-01T04:38:10.239Z,1004.63
2023-01-01T04:39:14.568Z,1004.65
2023-01-01T04:40:18.850Z,1004.63
2023-01-01T04:41:23.203Z,1004.64
2023-01-01T04:42:27.489Z,1004.64
2023-01-01T04:43:31.875Z,1004.62
2023-01-01T04:44:36.142Z,1004.63
2023-01-01T04:45:40.498Z,1004.64
2023-01-01T04:46:44.823Z,1004.64
2023-01-01T04:47:49.109Z,1004.61
2023-01-01T04:49:07.528Z,1004.63
2023-01-01T04:50:10.648Z,1004.60
2023-01-01T04:51:14.837Z,1004.55
2023-01-01T04:52:19.228Z,1004.70
2023-01-01T04:53:23.443Z,1004.73
2023-01-01T04:54:27.807Z,1004.74
2023-01-01T04:55:32.134Z,1004.72
2023-01-01T04:56:36.410Z,1004.75
2023-01-01T04:57:40.747Z,1004.71
2023-01-01T04:58:45.012Z,1004.71
2023-01-01T04:59:49.319Z,1004.72
2023-01-01T05:01:07.880Z,1004.73
2023-01-01T05:02:10.675Z,1004.71
2023-01-01T05:03:14.910Z,1004.71
2023-01-01T05:04:19.278Z,1004.75
2023-01-01T05:05:23.507Z,1004.68
2023-01-01T05:06:27.802Z,1004.78
2023-01-01T05:07:32.105Z,1004.84
2023-01-01T05:08:36.381Z,1004.83
2023-01-01T05:09:40.710Z,1004.93
2023-01-01T05:10:45.020Z,1004.96
2023-01-01T05:11:49.278Z,1005.00
2023-01-01T05:12:53.591Z,1005.02
2023-01-01T05:13:57.864Z,1004.97
2023-01-01T05:15:02.280Z,1004.98
2023-01-01T05:16:06.646Z,1005.02
2023-01-01T05:17:10.946Z,1005.04
2023-01-01T05:18:15.196Z,1005.01
2023-01-01T05:19:19.465Z,1005.01
2023-01-01T05:20:23.869Z,1005.14
2023-01-01T05:21:28.132Z,1005.12
2023-01-01T05:22:32.490Z,1005.14
2023-01-01T05:23:36.853Z,1005.16
2023-01-01T05:24:41.095Z,1005.12
2023-01-01T05:25:45.421Z,1005.13
2023-01-01T05:26:49.733Z,1005.11
2023-01-01T05:27:54.104Z,1005.11
2023-01-01T05:28:58.433Z,1005.14
2023-01-01T05:30:02.791Z,1005.17
2023-01-01T05:31:07.114Z,1005.18
2023-01-01T05:33:15.736Z,1005.09
2023-01-01T05:34:20.133Z,1005.18
2023-01-01T05:35:26.571Z,1005.12
2023-01-01T05:36:28.654Z,1005.22
2023-01-01T05:37:32.915Z,1005.26
2023-01-01T05:38:37.298Z,1005.23
2023-01-01T05:39:41.596Z,1005.18
2023-01-01T05:40:45.888Z,1005.21
2023-01-01T05:41:50.216Z,1005.19
2023-01-01T05:42:54.492Z,1005.22
2023-01-01T05:43:58.765Z,1005.19
2023-01-01T05:45:17.090Z,1005.23
2023-01-01T05:46:20.300Z,1005.25
2023-01-01T05:47:28.188Z,1005.25
2023-01-01T05:48:28.633Z,1005.26
2023-01-01T05:49:32.998Z,1005.35
2023-01-01T05:50:37.258Z,1005.29
2023-01-01T05:52:45.793Z,1005.28
2023-01-01T05:53:50.107Z,1005.21
2023-01-01T05:54:54.408Z,1005.19
2023-01-01T05:55:58.793Z,1005.19
2023-01-01T05:57:03.070Z,1005.19
2023-01-01T05:58:07.350Z,1005.24
2023-01-01T05:59:11.692Z,1005.30
2023-01-01T06:00:16.081Z,1005.24
2023-01-01T06:01:20.548Z,1005.30
2023-01-01T06:02:24.845Z,1005.27
2023-01-01T06:03:29.090Z,1005.32
2023-01-01T06:04:33.417Z,1005.29
2023-01-01T06:05:51.695Z,1005.25
2023-01-01T06:06:54.925Z,1005.27
2023-01-01T06:07:59.268Z,1005.33
2023-01-01T06:09:03.507Z,1005.39
2023-01-01T06:10:07.800Z,1005.33
2023-01-01T06:11:12.191Z,1005.29
2023-01-01T06:12:16.475Z,1005.19
2023-01-01T06:13:20.872Z,1005.24
2023-01-01T06:14:25.283Z,1005.25
2023-01-01T06:15:29.563Z,1005.20
2023-01-01T06:16:34.140Z,1005.25
2023-01-01T06:17:38.353Z,1005.23
2023-01-01T06:18:42.524Z,1005.28
2023-01-01T06:19:46.896Z,1005.34
2023-01-01T06:20:51.254Z,1005.30
2023-01-01T06:21:55.606Z,1005.25
2023-01-01T06:22:59.953Z,1005.29
2023-01-01T06:24:04.242Z,1005.32
2023-01-01T06:25:08.577Z,1005.29
2023-01-01T06:26:12.833Z,1005.27
2023-01-01T06:27:17.102Z,1005.29
2023-01-01T06:28:21.450Z,1005.33
2023-01-01T06:29:25.781Z,1005.38
2023-01-01T06:30:30.207Z,1005.43
2023-01-01T06:31:40.486Z,1005.45
2023-01-01T06:32:38.775Z,1005.49
2023-01-01T06:33:43.115Z,1005.51
2023-01-01T06:34:47.542Z,1005.54
2023-01-01T06:35:51.767Z,1005.49
2023-01-01T06:37:00.114Z,1005.51
2023-01-01T06:38:00.381Z,1005.51
2023-01-01T06:40:32.032Z,1005.45
2023-01-01T06:41:36.216Z,1005.42
2023-01-01T06:42:40.572Z,1005.41
2023-01-01T06:43:44.947Z,1005.40
2023-01-01T06:44:49.164Z,1005.36
2023-01-01T06:45:53.521Z,1005.36
2023-01-01T06:46:57.812Z,1005.38
2023-01-01T06:48:02.136Z,1005.38
2023-01-01T06:49:06.554Z,1005.40
2023-01-01T06:50:10.908Z,1005.45
2023-01-01T06:51:15.162Z,1005.50
2023-01-01T06:52:19.432Z,1005.54
2023-01-01T06:53:23.749Z,1005.55
2023-01-01T06:54:28.081Z,1005.57
2023-01-01T06:55:32.322Z,1005.59
2023-01-01T06:56:39.644Z,1005.62
2023-01-01T06:57:43.099Z,1005.60
2023-01-01T06:58:47.356Z,1005.64
2023-01-01T06:59:51.624Z,1005.64
2023-01-01T07:00:56.040Z,1005.72
2023-01-01T07:02:00.456Z,1005.68
2023-01-01T07:03:04.751Z,1005.66
2023-01-01T07:04:08.878Z,1005.66
2023-01-01T07:05:13.237Z,1005.69
2023-01-01T07:06:31.533Z,1005.67
2023-01-01T07:07:36.151Z,1005.75
2023-01-01T07:08:38.859Z,1005.73
2023-01-01T07:09:43.138Z,1005.70
2023-01-01T07:10:47.487Z,1005.72
2023-01-01T07:11:51.848Z,1005.72
2023-01-01T07:12:56.200Z,1005.70
2023-01-01T07:14:00.489Z,1005.74
2023-01-01T07:15:04.740Z,1005.83
2023-01-01T07:16:12.997Z,1005.84
2023-01-01T07:17:13.425Z,1005.88
2023-01-01T07:18:17.686Z,1005.84
2023-01-01T07:19:22.079Z,1005.87
2023-01-01T07:20:26.486Z,1005.88
2023-01-01T07:21:30.752Z,1005.89
2023-01-01T07:22:35.095Z,1005.90
2023-01-01T07:23:39.436Z,1005.92
2023-01-01T07:24:43.679Z,1005.93
2023-01-01T07:25:47.966Z,1005.90
2023-01-01T07:26:52.312Z,1005.97
2023-01-01T07:27:56.617Z,1005.93
2023-01-01T07:29:08.477Z,1005.94
2023-01-01T07:30:19.276Z,1005.98
2023-01-01T07:31:22.224Z,1005.98
2023-01-01T07:32:26.496Z,1005.96
2023-01-01T07:33:30.747Z,1005.95
2023-01-01T07:34:35.063Z,1005.90
2023-01-01T07:35:39.428Z,1005.91
2023-01-01T07:36:43.770Z,1005.98
2023-01-01T07:37:48.123Z,1005.98
2023-01-01T07:39:06.421Z,1005.97
2023-01-01T07:40:09.562Z,1006.04
2023-01-01T07:41:13.773Z,1006.10
2023-01-01T07:42:18.116Z,1006.13
2023-01-01T07:43:22.395Z,1006.14
2023-01-01T07:44:26.682Z,1006.13
2023-01-01T07:45:31.028Z,1006.13
2023-01-01T07:46:35.349Z,1006.10
2023-01-01T07:47:39.634Z,1006.10
2023-01-01T07:48:43.903Z,1006.10
2023-01-01T07:49:48.292Z,1006.12
2023-01-01T07:51:06.635Z,1006.13
2023-01-01T07:52:09.660Z,1006.19
2023-01-01T07:53:13.943Z,1006.14
2023-01-01T07:54:18.285Z,1006.21
2023-01-01T07:55:22.603Z,1006.19
2023-01-01T07:56:26.937Z,1006.16
2023-01-01T07:57:34.302Z,1006.20
2023-01-01T07:58:37.719Z,1006.22
2023-01-01T07:59:42.069Z,1006.27
2023-01-01T08:00:46.338Z,1006.36
2023-01-01T08:01:50.744Z,1006.31
2023-01-01T08:02:54.993Z,1006.30
2023-01-01T08:03:59.235Z,1006.28
2023-01-01T08:05:03.607Z,1006.36
2023-01-01T08:06:07.891Z,1006.37
2023-01-01T08:07:12.158Z,1006.32
2023-01-01T08:08:16.449Z,1006.26
2023-01-01T08:09:20.818Z,1006.21
2023-01-01T08:10:25.080Z,1006.37
2023-01-01T08:11:29.445Z,1006.42
2023-01-01T08:12:33.732Z,1006.47
2023-01-01T08:13:38.027Z,1006.48
2023-01-01T08:14:42.335Z,1006.53
2023-01-01T08:15:46.661Z,1006.52
2023-01-01T08:16:50.921Z,1006.55
2023-01-01T08:17:55.293Z,1006.65
2023-01-01T08:18:59.600Z,1006.65
2023-01-01T08:20:03.829Z,1006.69
2023-01-01T08:21:08.143Z,1006.74
2023-01-01T08:22:12.551Z,1006.77
2023-01-01T08:23:16.915Z,1006.77
2023-01-01T08:24:21.257Z,1006.82
2023-01-01T08:25:25.605Z,1006.84
2023-01-01T08:26:29.890Z,1006.75
2023-01-01T08:27:34.186Z,1006.69
2023-01-01T08:28:38.465Z,1006.70
2023-01-01T08:29:42.792Z,1006.66
2023-01-01T08:30:47.047Z,1006.72
2023-01-01T08:31:51.366Z,1006.82
2023-01-01T08:32:55.700Z,1006.88
2023-01-01T08:34:00.014Z,1006.92
2023-01-01T08:35:04.282Z,1006.93
2023-01-01T08:36:08.583Z,1006.96
2023-01-01T08:37:12.989Z,1006.99
2023-01-01T08:38:17.265Z,1007.04
2023-01-01T08:39:21.640Z,1007.03
2023-01-01T08:40:25.891Z,1006.99
2023-01-01T08:41:30.279Z,1006.98
2023-01-01T08:42:34.509Z,1006.97
2023-01-01T08:43:38.903Z,1006.98
2023-01-01T08:44:43.277Z,1006.96
2023-01-01T08:45:47.611Z,1006.92
2023-01-01T08:46:52.016Z,1006.96
2023-01-01T08:47:56.251Z,1006.93
2023-01-01T08:49:00.591Z,1006.95
2023-01-01T08:50:04.873Z,1006.97
2023-01-01T08:51:09.143Z,1006.94
2023-01-01T08:52:13.472Z,1007.00
2023-01-01T08:53:17.854Z,1007.05
2023-01-01T08:54:22.210Z,1007.07
2023-01-01T08:55:26.428Z,1007.09
2023-01-01T08:56:44.730Z,1007.10
2023-01-01T08:57:47.709Z,1007.05
2023-01-01T08:59:03.816Z,1007.00
2023-01-01T09:00:00.905Z,1006.97
2023-01-01T09:01:05.191Z,1007.02
2023-01-01T09:02:09.738Z,1007.04
2023-01-01T09:03:14.020Z,1007.05
2023-01-01T09:04:18.269Z,1007.15
2023-01-01T09:05:22.586Z,1007.17
2023-01-01T09:06:29.851Z,1007.14
2023-01-01T09:07:33.260Z,1007.17
2023-01-01T09:08:37.698Z,1007.17
2023-01-01T09:09:41.908Z,1007.22
2023-01-01T09:10:46.290Z,1007.24
2023-01-01T09:12:04.596Z,1007.24
2023-01-01T09:13:07.772Z,1007.25
2023-01-01T09:14:12.083Z,1007.19
2023-01-01T09:15:19.358Z,1007.23
2023-01-01T09:16:22.890Z,1007.27
2023-01-01T09:17:27.097Z,1007.30
2023-01-01T09:18:31.418Z,1007.32
2023-01-01T09:19:35.917Z,1007.37
2023-01-01T09:20:40.118Z,1007.35
2023-01-01T09:21:44.417Z,1007.36
2023-01-01T09:22:48.810Z,1007.38
2023-01-01T09:23:53.139Z,1007.35
2023-01-01T09:25:03.517Z,1007.37
2023-01-01T09:26:06.428Z,1007.42
2023-01-01T09:27:10.676Z,1007.50
2023-01-01T09:28:17.205Z,1007.52
2023-01-01T09:29:19.252Z,1007.56
2023-01-01T09:30:23.647Z,1007.55
2023-01-01T09:31:27.990Z,1007.58
2023-01-01T09:32:32.196Z,1007.71
2023-01-01T09:33:36.584Z,1007.65
2023-01-01T09:34:40.985Z,1007.70
2023-01-01T09:35:45.188Z,1007.64
2023-01-01T09:36:49.576Z,1007.62
2023-01-01T09:37:53.861Z,1007.60
2023-01-01T09:38:58.164Z,1007.61
2023-01-01T09:40:05.600Z,1007.61
2023-01-01T09:41:09.011Z,1007.60
2023-01-01T09:42:13.257Z,1007.66
2023-01-01T09:43:17.582Z,1007.67
2023-01-01T09:44:21.869Z,1007.77
2023-01-01T09:45:26.546Z,1007.81
2023-01-01T09:46:31.997Z,1007.75
2023-01-01T09:47:34.879Z,1007.76
2023-01-01T09:48:53.219Z,1007.80
2023-01-01T09:49:56.365Z,1007.81
2023-01-01T09:51:00.623Z,1007.86
2023-01-01T09:52:04.869Z,1007.88
2023-01-01T09:53:09.203Z,1007.84
2023-01-01T09:54:13.489Z,1007.89
2023-01-01T09:55:17.775Z,1007.83
2023-01-01T09:56:22.077Z,1007.93
2023-01-01T09:57:26.332Z,1007.90
2023-01-01T09:58:30.624Z,1007.85
2023-01-01T09:59:34.890Z,1007.92
2023-01-01T10:00:39.162Z,1007.92
2023-01-01T10:01:43.653Z,1007.85
2023-01-01T10:02:51.730Z,1007.86
2023-01-01T10:03:52.219Z,1007.85
2023-01-01T10:04:56.544Z,1007.91
2023-01-01T10:06:00.826Z,1007.93
2023-01-01T10:07:05.178Z,1008.00
2023-01-01T10:08:09.439Z,1007.98
2023-01-01T10:09:13.729Z,1008.06
2023-01-01T10:10:18.012Z,1008.07
2023-01-01T10:11:22.286Z,1008.14
2023-01-01T10:12:26.599Z,1008.11
2023-01-01T10:13:30.867Z,1008.21
2023-01-01T10:14:36.229Z,1008.23
2023-01-01T10:15:40.133Z,1008.25
2023-01-01T10:16:44.395Z,1008.27
2023-01-01T10:17:48.750Z,1008.30
2023-01-01T10:18:56.013Z,1008.31
2023-01-01T10:19:59.418Z,1008.28
2023-01-01T10:21:06.730Z,1008.33
2023-01-01T10:22:10.091Z,1008.40
2023-01-01T10:23:14.417Z,1008.38
2023-01-01T10:24:18.669Z,1008.41
2023-01-01T10:25:22.982Z,1008.40
2023-01-01T10:26:27.321Z,1008.47
2023-01-01T10:27:31.636Z,1008.47
2023-01-01T10:28:35.959Z,1008.55
2023-01-01T10:29:40.321Z,1008.54
2023-01-01T10:30:44.666Z,1008.66
2023-01-01T10:31:49.056Z,1008.60
2023-01-01T10:32:53.261Z,1008.54
2023-01-01T10:33:57.565Z,1008.54
2023-01-01T10:35:01.873Z,1008.56
2023-01-01T10:36:20.266Z,1008.53
2023-01-01T10:37:23.341Z,1008.52
2023-01-01T10:38:27.593Z,1008.51
2023-01-01T10:39:31.886Z,1008.58
2023-01-01T10:40:36.231Z,1008.67
2023-01-01T10:41:40.503Z,1008.74
2023-01-01T10:42:44.778Z,1008.74
2023-01-01T10:43:49.088Z,1008.75
2023-01-01T10:44:53.416Z,1008.82
2023-01-01T10:45:57.782Z,1008.87
2023-01-01T10:47:01.996Z,1008.82
2023-01-01T10:48:06.391Z,1008.87
2023-01-01T10:49:10.773Z,1008.85
2023-01-01T10:50:14.973Z,1008.88
2023-01-01T10:51:19.387Z,1008.94
2023-01-01T10:52:23.630Z,1008.92
2023-01-01T10:53:27.911Z,1008.85
2023-01-01T10:54:32.215Z,1008.98
2023-01-01T10:55:36.498Z,1008.86
2023-01-01T10:56:40.835Z,1008.86
2023-01-01T10:57:45.224Z,1008.82
2023-01-01T10:58:49.569Z,1008.82
2023-01-01T10:59:54.677Z,1008.84
2023-01-01T11:01:04.364Z,1008.90
2023-01-01T11:02:21.675Z,1008.87
2023-01-01T11:03:24.500Z,1008.88
2023-01-01T11:04:28.713Z,1008.77
2023-01-01T11:05:33.049Z,1008.77
2023-01-01T11:06:37.385Z,1008.81
2023-01-01T11:07:47.748Z,1008.89
2023-01-01T11:08:50.747Z,1008.86
2023-01-01T11:10:03.212Z,1008.87
2023-01-01T11:10:59.325Z,1008.99
2023-01-01T11:12:09.389Z,1008.95
2023-01-01T11:13:07.911Z,1008.97
2023-01-01T11:14:12.168Z,1008.99
2023-01-01T11:15:16.450Z,1009.01
2023-01-01T11:16:20.920Z,1008.99
2023-01-01T11:17:25.104Z,1008.98
2023-01-01T11:18:29.391Z,1008.94
2023-01-01T11:19:33.731Z,1008.96
2023-01-01T11:20:38.012Z,1008.95
2023-01-01T11:21:42.353Z,1008.92
2023-01-01T11:22:46.646Z,1008.92
2023-01-01T11:23:51.078Z,1008.94
2023-01-01T11:24:55.292Z,1008.98
2023-01-01T11:25:59.604Z,1009.02
2023-01-01T11:27:03.915Z,1009.06
2023-01-01T11:28:11.269Z,1009.12
2023-01-01T11:29:14.694Z,1009.15
2023-01-01T11:30:19.013Z,1009.14
2023-01-01T11:31:23.309Z,1009.13
2023-01-01T11:32:27.502Z,1009.10
2023-01-01T11:33:31.756Z,1009.07
2023-01-01T11:34:36.149Z,1009.09
2023-01-01T11:35:40.510Z,1009.11
2023-01-01T11:36:44.762Z,1009.10
2023-01-01T11:37:49.035Z,1009.05
2023-01-01T11:38:53.334Z,1009.03
2023-01-01T11:39:57.729Z,1009.03
2023-01-01T11:41:01.980Z,1009.02
2023-01-01T11:42:06.326Z,1009.04
2023-01-01T11:43:10.673Z,1009.08
2023-01-01T11:44:14.945Z,1009.10
2023-01-01T11:45:19.187Z,1009.09
2023-01-01T11:46:23.619Z,1009.11
2023-01-01T11:47:27.831Z,1009.06
2023-01-01T11:48:32.184Z,1009.02
2023-01-01T11:49:36.488Z,1009.03
2023-01-01T11:50:40.796Z,1009.05
2023-01-01T11:51:45.073Z,1009.02
2023-01-01T11:52:49.379Z,1009.05
2023-01-01T11:53:53.662Z,1009.03
2023-01-01T11:54:57.945Z,1009.09
2023-01-01T11:56:02.337Z,1009.12
2023-01-01T11:57:06.596Z,1009.18
2023-01-01T11:58:14.468Z,1009.21
2023-01-01T11:59:15.214Z,1009.15
2023-01-01T12:00:19.592Z,1009.14
2023-01-01T12:01:24.019Z,1009.18
2023-01-01T12:02:28.336Z,1009.21
2023-01-01T12:03:33.764Z,1009.29
2023-01-01T12:04:36.940Z,1009.29
2023-01-01T12:05:41.271Z,1009.22
2023-01-01T12:06:45.458Z,1009.13
2023-01-01T12:07:49.883Z,1009.15
2023-01-01T12:08:54.144Z,1009.15
2023-01-01T12:09:58.469Z,1009.19
2023-01-01T12:11:16.888Z,1009.21
2023-01-01T12:12:20.223Z,1009.33
2023-01-01T12:13:24.390Z,1009.41
2023-01-01T12:14:32.740Z,1009.41
2023-01-01T12:15:33.029Z,1009.48
2023-01-01T12:16:37.401Z,1009.56
2023-01-01T12:17:41.677Z,1009.62
2023-01-01T12:18:46.021Z,1009.74
2023-01-01T12:19:50.260Z,1009.83
2023-01-01T12:20:54.588Z,1009.82
2023-01-01T12:21:58.946Z,1009.80
2023-01-01T12:23:03.275Z,1009.75
2023-01-01T12:24:07.552Z,1009.72
2023-01-01T12:25:11.898Z,1009.72
2023-01-01T12:26:16.125Z,1009.75
2023-01-01T12:27:20.743Z,1009.80
2023-01-01T12:28:24.834Z,1009.79
2023-01-01T12:29:29.205Z,1009.74
2023-01-01T12:30:33.562Z,1009.76
2023-01-01T12:31:37.899Z,1009.75
2023-01-01T12:32:42.124Z,1009.78
2023-01-01T12:33:46.424Z,1009.76
2023-01-01T12:34:50.807Z,1009.78
2023-01-01T12:35:55.109Z,1009.80
2023-01-01T12:36:59.427Z,1009.77
2023-01-01T12:38:03.791Z,1009.73
2023-01-01T12:39:08.109Z,1009.76
2023-01-01T12:40:17.072Z,1009.74
2023-01-01T12:41:16.734Z,1009.75
2023-01-01T12:42:21.010Z,1009.70
2023-01-01T12:43:25.450Z,1009.74
2023-01-01T12:44:29.583Z,1009.77
2023-01-01T12:45:33.971Z,1009.79
2023-01-01T12:46:38.292Z,1009.80
2023-01-01T12:47:42.540Z,1009.83
2023-01-01T12:48:46.809Z,1009.84
2023-01-01T12:49:51.172Z,1009.83
2023-01-01T12:51:01.442Z,1009.83
2023-01-01T12:51:59.740Z,1009.82
2023-01-01T12:54:31.287Z,1009.93
2023-01-01T12:55:35.572Z,1009.98
2023-01-01T12:56:39.822Z,1009.98
2023-01-01T12:57:44.191Z,1010.01
2023-01-01T12:58:48.472Z,1010.02
2023-01-01T12:59:52.852Z,1010.03
2023-01-01T13:00:57.113Z,1010.08
2023-01-01T13:02:01.497Z,1010.16
2023-01-01T13:03:05.851Z,1010.21
2023-01-01T13:04:10.024Z,1010.25
2023-01-01T13:05:14.408Z,1010.21
2023-01-01T13:06:23.399Z,1010.21
2023-01-01T13:07:23.029Z,1010.22
2023-01-01T13:08:27.324Z,1010.20
2023-01-01T13:09:31.600Z,1010.22
2023-01-01T13:10:35.850Z,1010.23